Ryan, Iowa
Current Conditions -  °F | °C
As of 12:15 PM on Friday 19 Dec 2014 (Local Time) from KMXO Reporting Station
Overcast Overcast  
Wind Chill: 19°   Ceiling: 6500
Heat Index: 27°   Visibility: 10mi
Dew Point: 23°   Wind: 7mph
Humidity: 86%   Direction: 130°SE
Pressure: 30.28"   Gusts: NA
Location:  42.35°N, 91.48°W
Report Text: KMXO 191815Z AUTO 13006KT 10SM OVC065 M03/M05 A3028 RMK AO2
Loading
Personal Weather Stations






























Interactive Weather Map New forecast layout! Learn more

10-Day Weather Forecast

Advertisements
Track Severe Weather on mobile